FW8640 Weather Reports


time (UTC)temp
C
wind
direction
speed
KPH
gust
KPH
rain 1hr
cm
rain 24hr
cm
rain mn
cm
humidity
%
barometer
mb
20240420172101 17 0 3.2 16.1 0.00 0.00 0.00 66 1009.2
20240420171019 17 0 6.4 19.3 0.00 0.00 0.00 63 1008.4
20240420170018 17 0 8.0 25.7 0.00 0.00 0.00 64 1008.4
20240420165040 17 0 14.5 35.4 0.00 0.00 0.00 62 1008.1
20240420164041 17 0 11.3 29.0 0.00 0.00 0.00 61 1008.1
20240420163018 17 0 11.3 32.2 0.00 0.00 0.00 59 1007.9
20240420162018 17 0 8.0 27.4 0.00 0.00 0.00 57 1007.8
20240420161018 18 0 6.4 20.9 0.00 0.00 0.00 57 1007.9
20240420160018 18 0 6.4 25.7 0.00 0.00 0.00 57 1007.9
20240420155019 18 0 4.8 16.1 0.00 0.00 0.00 53 1008.0
20240420154018 19 0 8.0 24.1 0.00 0.00 0.00 49 1007.7
20240420153018 19 0 4.8 12.9 0.00 0.03 0.00 48 1007.7
20240420152018 19 0 9.7 22.5 0.00 0.08 0.00 46 1007.8
20240420151019 20 0 4.8 19.3 0.00 0.13 0.00 42 1007.7
20240420150019 20 0 4.8 16.1 0.00 0.15 0.00 43 1007.7
20240420145019 20 0 4.8 14.5 0.00 0.20 0.00 43 1007.7
20240420144018 20 0 8.0 14.5 0.00 0.25 0.00 44 1007.5
20240420143018 20 0 6.4 19.3 0.00 0.30 0.00 43 1007.4
20240420142040 20 0 6.4 16.1 0.00 0.36 0.00 43 1007.6
20240420141018 20 0 4.8 16.1 0.00 0.43 0.00 42 1007.6
20240420140018 20 0 4.8 8.0 0.00 0.46 0.00 43 1007.5
20240420135017 20 0 4.8 9.7 0.00 0.46 0.00 43 1007.6
20240420134040 20 0 4.8 14.5 0.00 0.46 0.00 40 1007.6
20240420133018 20 0 3.2 16.1 0.00 0.46 0.00 41 1007.6
20240420132017 20 0 4.8 14.5 0.00 0.46 0.00 40 1007.6
20240420131017 20 0 4.8 14.5 0.00 0.46 0.00 41 1007.6
20240420130018 20 0 6.4 17.7 0.00 0.46 0.00 42 1007.8
20240420125019 20 0 6.4 14.5 0.00 0.46 0.00 43 1007.7
20240420124019 20 0 4.8 8.0 0.00 0.46 0.00 43 1007.8
20240420123019 19 0 4.8 12.9 0.00 0.46 0.00 43 1007.7
20240420122017 19 0 4.8 9.7 0.00 0.46 0.00 45 1007.8
20240420121038 19 0 4.8 14.5 0.00 0.46 0.00 44 1007.8
20240420120017 19 0 4.8 19.3 0.00 0.46 0.00 45 1008.0
20240420115017 19 0 4.8 14.5 0.00 0.46 0.00 44 1007.9
20240420114017 18 0 4.8 16.1 0.00 0.46 0.00 47 1007.9
20240420113017 18 0 4.8 16.1 0.00 0.46 0.00 48 1007.9
20240420112019 19 0 4.8 14.5 0.00 0.46 0.00 48 1007.9
20240420111017 19 0 3.2 8.0 0.00 0.46 0.00 46 1007.9
20240420110017 18 0 6.4 12.9 0.00 0.46 0.00 47 1007.9
20240420105017 19 0 3.2 12.9 0.00 0.46 0.00 45 1008.1
20240420104039 19 0 4.8 9.7 0.00 0.46 0.00 44 1008.2
20240420103017 19 0 3.2 14.5 0.00 0.46 0.00 43 1008.0
20240420102017 18 0 3.2 12.9 0.00 0.46 0.00 42 1008.1
20240420101038 18 0 3.2 8.0 0.00 0.46 0.00 41 1008.3
20240420100017 18 0 3.2 6.4 0.00 0.46 0.00 42 1008.4
20240420095017 18 0 4.8 12.9 0.00 0.46 0.00 42 1008.4
20240420094017 18 0 4.8 9.7 0.00 0.46 0.00 43 1008.4
20240420093018 18 0 4.8 14.5 0.00 0.46 0.00 41 1008.5
20240420092017 18 0 6.4 12.9 0.00 0.46 0.00 40 1008.6
20240420091039 19 0 3.2 9.7 0.00 0.46 0.00 40 1008.5
20240420090017 18 0 4.8 9.7 0.00 0.46 0.00 42 1008.5
20240420085017 18 0 4.8 9.7 0.00 0.46 0.00 42 1008.7
20240420084018 17 0 8.0 16.1 0.00 0.46 0.00 44 1008.6
20240420083017 18 0 3.2 8.0 0.00 0.46 0.00 44 1008.5
20240420082017 17 0 6.4 14.5 0.00 0.46 0.00 45 1008.4
20240420081038 17 0 6.4 14.5 0.00 0.46 0.00 45 1008.3
20240420080017 17 0 4.8 12.9 0.00 0.46 0.00 48 1008.4
20240420075038 17 0 3.2 9.7 0.00 0.46 0.00 46 1008.4
20240420074039 17 0 3.2 9.7 0.00 0.46 0.00 47 1008.5
20240420073018 17 0 3.2 8.0 0.00 0.46 0.00 46 1008.5
20240420072017 17 0 3.2 8.0 0.00 0.46 0.00 47 1008.6
20240420071017 16 0 6.4 9.7 0.00 0.46 0.00 50 1008.3
20240420070018 16 0 4.8 8.0 0.00 0.46 0.00 49 1008.3
20240420065016 16 0 4.8 12.9 0.00 0.46 0.00 50 1008.4
20240420064018 16 0 4.8 9.7 0.00 0.46 0.00 50 1008.4
20240420063037 16 0 1.6 6.4 0.00 0.46 0.00 52 1008.3
20240420062017 15 0 1.6 4.8 0.00 0.46 0.00 54 1008.3
20240420061017 15 0 3.2 6.4 0.00 0.46 0.00 53 1008.3
20240420060018 15 0 8.0 14.5 0.00 0.46 0.00 53 1008.1
20240420055016 15 0 8.0 16.1 0.00 0.46 0.00 54 1008.1
20240420054017 14 0 8.0 16.1 0.00 0.46 0.00 55 1007.9
20240420053016 13 0 11.3 17.7 0.00 0.46 0.00 56 1007.8
20240420052016 13 0 11.3 22.5 0.00 0.46 0.00 57 1007.6
20240420051016 13 0 9.7 20.9 0.00 0.46 0.00 58 1007.5
20240420050019 13 0 9.7 16.1 0.00 0.46 0.00 58 1007.2
20240420045016 12 0 9.7 14.5 0.00 0.46 0.00 59 1007.1
20240420044039 12 0 11.3 17.7 0.00 0.46 0.00 59 1007.0
20240420043039 12 0 12.9 17.7 0.00 0.46 0.00 59 1006.9
20240420042016 12 0 11.3 17.7 0.00 0.46 0.00 59 1006.9
20240420041016 13 0 12.9 17.7 0.00 0.46 0.00 59 1006.8
20240420040018 13 0 12.9 17.7 0.00 0.46 0.00 59 1006.8
20240420035016 13 0 9.7 17.7 0.00 0.46 0.00 60 1006.7
20240420034039 13 0 4.8 9.7 0.00 0.46 0.00 63 1006.5
20240420033016 13 0 8.0 12.9 0.00 0.46 0.00 63 1006.4
20240420032018 13 0 9.7 17.7 0.00 0.46 0.00 63 1006.3
20240420031018 12 45 4.8 16.1 0.00 0.46 0.00 64 1006.3
20240420030018 12 23 4.8 19.3 0.00 0.46 0.00 64 1006.2
20240420025018 12 0 3.2 14.5 0.00 0.46 0.00 66 1006.3
20240420024018 12 0 3.2 14.5 0.00 0.46 0.00 66 1006.2
20240420023020 12 338 6.4 14.5 0.00 0.46 0.00 67 1006.1
20240420022020 12 338 4.8 12.9 0.00 0.46 0.00 68 1006.2
20240420021019 12 338 9.7 19.3 0.00 0.46 0.00 69 1006.0
20240420020039 12 0.0 0.0 0.00 0.46 0.00 72 1006.1
20240420015018 12 0.0 4.8 0.00 0.46 0.00 70 1006.3
20240420014040 12 338 3.2 9.7 0.00 0.46 0.00 70 1006.1
20240420013018 12 338 6.4 14.5 0.00 0.46 0.00 71 1005.4
20240420012018 12 0.0 0.0 0.00 0.46 0.00 72 1005.5
20240420011018 12 0.0 4.8 0.00 0.46 0.00 73 1005.7
20240420010020 12 0.0 8.0 0.00 0.46 0.00 73 1005.7
20240420005018 12 0.0 8.0 0.00 0.46 0.00 74 1005.7
20240420004018 12 0.0 0.0 0.00 0.46 0.00 75 1005.7
20240420003018 12 0.0 3.2 0.00 0.46 0.00 75 1005.7
20240420002018 12 0.0 0.0 0.00 0.46 0.00 74 1005.7
20240420001018 13 0.0 0.0 0.00 0.46 0.00 74 1005.8
20240420000018 13 0.0 0.0 0.00 0.46 0.00 72 1005.8
20240419235018 13 0.0 0.0 0.00 0.46 0.00 71 1005.6
20240419234039 13 0.0 0.0 0.00 0.46 0.00 72 1005.6
20240419233038 13 0.0 0.0 0.00 0.46 0.00 72 1005.6
20240419232017 13 0.0 0.0 0.00 0.46 0.00 73 1005.6
20240419231018 13 338 3.2 12.9 0.00 0.46 0.00 73 1005.5
20240419230019 13 338 4.8 12.9 0.00 0.46 0.00 73 1005.6
20240419225018 13 338 3.2 9.7 0.00 0.46 0.00 72 1005.7
20240419224018 13 338 1.6 9.7 0.00 0.46 0.00 72 1005.9
20240419223019 13 338 1.6 6.4 0.00 0.46 0.00 71 1006.0
20240419222017 13 0.0 0.0 0.00 0.46 0.00 70 1006.2
20240419221018 13 0.0 1.6 0.00 0.46 0.00 71 1006.3
20240419220019 13 338 1.6 9.7 0.00 0.46 0.00 71 1006.4
20240419215018 13 338 1.6 9.7 0.00 0.46 0.00 73 1006.3
20240419214017 13 315 3.2 9.7 0.00 0.46 0.00 74 1006.3
20240419213017 13 315 8.0 14.5 0.00 0.46 0.00 76 1006.3
20240419212017 13 315 6.4 12.9 0.00 0.46 0.00 75 1006.4
20240419211038 13 338 8.0 16.1 0.00 0.46 0.00 71 1006.4
20240419210017 15 0 4.8 12.9 0.00 0.46 0.46 65 1006.6
20240419205016 15 0 8.0 16.1 0.00 0.46 0.46 66 1006.6
20240419204017 15 0 6.4 9.7 0.00 0.46 0.46 68 1006.7
20240419203016 15 0 6.4 12.9 0.00 0.46 0.46 68 1006.9
20240419202016 15 0 6.4 12.9 0.00 0.46 0.46 67 1007.1
20240419201037 15 0 3.2 9.7 0.00 0.46 0.46 69 1007.2
20240419200016 15 0 8.0 12.9 0.00 0.46 0.46 70 1007.3
20240419195202 14 0 8.0 14.5 0.00 0.46 0.46 71 1007.3
20240419194016 14 0 14.5 19.3 0.00 0.46 0.46 70 1007.3
20240419193016 14 0 12.9 20.9 0.00 0.46 0.46 71 1007.2
20240419192016 14 0 11.3 17.7 0.00 0.46 0.46 72 1007.4
20240419191038 14 0 6.4 17.7 0.00 0.46 0.46 72 1007.4
20240419190016 14 0 6.4 14.5 0.00 0.46 0.46 73 1007.6
20240419185016 14 0.0 3.2 0.00 0.46 0.46 74 1007.8
20240419184059 14 0 1.6 3.2 0.00 0.46 0.46 74 1007.8
20240419183016 15 0 4.8 8.0 0.00 0.46 0.46 72 1007.8
20240419182016 15 0 3.2 9.7 0.00 0.46 0.46 73 1007.7
20240419181018 15 0 6.4 14.5 0.00 0.46 0.46 73 1007.6
20240419180018 15 0 8.0 16.1 0.00 0.46 0.46 73 1007.8
20240419175018 15 0 3.2 16.1 0.00 0.46 0.46 74 1007.8
20240419174016 15 0 4.8 12.9 0.00 0.46 0.46 76 1007.7
20240419173018 14 0 6.4 16.1 0.00 0.46 0.46 76 1007.6